createdAt,value
2018-06-12T00:00:48.451Z,4.50
2018-06-12T00:03:16.942Z,3.90
2018-06-12T00:05:45.327Z,5.40
2018-06-12T00:08:13.736Z,4.70
2018-06-12T00:10:42.276Z,4.50
2018-06-12T00:13:10.848Z,4.50
2018-06-12T00:15:39.358Z,4.63
2018-06-12T00:18:07.920Z,4.33
2018-06-12T00:20:36.349Z,4.10
2018-06-12T00:23:04.877Z,3.97
2018-06-12T00:25:33.341Z,4.37
2018-06-12T00:28:01.795Z,4.73
2018-06-12T00:30:30.218Z,4.50
2018-06-12T00:32:58.668Z,4.57
2018-06-12T00:35:27.150Z,4.77
2018-06-12T00:37:55.665Z,4.37
2018-06-12T00:40:24.113Z,4.73
2018-06-12T00:42:52.546Z,4.73
2018-06-12T00:45:21.024Z,4.77
2018-06-12T00:47:49.438Z,4.77
2018-06-12T00:50:17.884Z,4.93
2018-06-12T00:52:46.337Z,5.50
2018-06-12T00:55:14.859Z,5.30
2018-06-12T00:57:43.269Z,5.33
2018-06-12T01:00:11.747Z,5.67
2018-06-12T01:02:40.236Z,5.40
2018-06-12T01:05:08.992Z,5.87
2018-06-12T01:07:37.407Z,6.00
2018-06-12T01:10:06.562Z,6.43
2018-06-12T01:12:35.206Z,5.97
2018-06-12T01:15:03.663Z,6.77
2018-06-12T01:17:32.169Z,5.60
2018-06-12T01:20:01.402Z,5.97
2018-06-12T01:22:30.224Z,5.70
2018-06-12T01:24:58.893Z,6.00
2018-06-12T01:27:27.451Z,5.90
2018-06-12T01:29:56.016Z,6.43
2018-06-12T01:32:24.581Z,6.40
2018-06-12T01:34:53.715Z,6.40
2018-06-12T01:37:22.648Z,6.57
2018-06-12T01:39:51.098Z,6.50
2018-06-12T01:42:19.584Z,6.43
2018-06-12T01:44:48.061Z,6.30
2018-06-12T01:47:16.519Z,6.40
2018-06-12T01:49:45.078Z,6.43
2018-06-12T01:52:13.561Z,6.07
2018-06-12T01:54:42.058Z,5.93
2018-06-12T01:57:10.618Z,6.10
2018-06-12T01:59:39.092Z,5.60
2018-06-12T02:02:07.549Z,5.30
2018-06-12T02:04:36.179Z,5.50
2018-06-12T02:07:06.567Z,4.97
2018-06-12T02:09:35.019Z,5.10
2018-06-12T02:12:03.477Z,4.90
2018-06-12T02:14:32.280Z,4.60
2018-06-12T02:17:00.769Z,4.83
2018-06-12T02:19:29.227Z,4.30
2018-06-12T02:21:57.883Z,4.57
2018-06-12T02:24:27.411Z,4.53
2018-06-12T02:26:56.015Z,5.00
2018-06-12T02:29:24.519Z,4.80
2018-06-12T02:31:53.174Z,4.90
2018-06-12T02:34:21.640Z,4.67
2018-06-12T02:36:50.312Z,5.07
2018-06-12T02:39:19.035Z,4.93
2018-06-12T02:41:47.622Z,4.90
2018-06-12T02:44:16.099Z,4.80
2018-06-12T02:46:44.658Z,4.70
2018-06-12T02:49:13.494Z,4.60
2018-06-12T02:51:42.009Z,4.53
2018-06-12T02:54:10.571Z,4.67
2018-06-12T02:56:39.292Z,4.10
2018-06-12T02:59:07.839Z,4.67
2018-06-12T03:01:36.354Z,4.43
2018-06-12T03:04:04.955Z,4.20
2018-06-12T03:06:33.629Z,4.23
2018-06-12T03:09:02.119Z,3.87
2018-06-12T03:11:30.613Z,3.80
2018-06-12T03:13:59.110Z,4.03
2018-06-12T03:16:27.724Z,4.17
2018-06-12T03:18:56.249Z,4.27
2018-06-12T03:21:24.729Z,3.90
2018-06-12T03:23:53.335Z,4.00
2018-06-12T03:26:21.898Z,3.93
2018-06-12T03:28:50.367Z,3.80
2018-06-12T03:31:18.856Z,4.07
2018-06-12T03:33:47.338Z,3.80
2018-06-12T03:36:15.864Z,4.03
2018-06-12T03:38:44.421Z,4.00
2018-06-12T03:41:12.961Z,3.90
2018-06-12T03:43:41.399Z,3.73
2018-06-12T03:46:09.930Z,3.80
2018-06-12T03:48:38.499Z,3.97
2018-06-12T03:51:07.733Z,4.43
2018-06-12T03:53:36.321Z,3.80
2018-06-12T03:56:05.446Z,3.97
2018-06-12T03:58:34.110Z,4.23
2018-06-12T04:01:02.755Z,3.90
2018-06-12T04:03:31.333Z,4.13
2018-06-12T04:05:59.912Z,3.87
2018-06-12T04:08:28.455Z,4.20
2018-06-12T04:10:57.050Z,4.00
2018-06-12T04:13:26.136Z,4.20
2018-06-12T04:15:54.615Z,4.37
2018-06-12T04:18:23.278Z,4.57
2018-06-12T04:20:51.831Z,4.70
2018-06-12T04:23:20.414Z,4.83
2018-06-12T04:25:48.975Z,5.53
2018-06-12T04:28:17.528Z,5.30
2018-06-12T04:30:46.985Z,5.13
2018-06-12T04:33:15.642Z,5.73
2018-06-12T04:35:44.910Z,5.20
2018-06-12T04:38:13.484Z,4.73
2018-06-12T04:40:42.172Z,4.33
2018-06-12T04:43:10.757Z,4.60
2018-06-12T04:45:39.271Z,4.57
2018-06-12T04:48:07.832Z,4.73
2018-06-12T04:50:36.321Z,4.50
2018-06-12T04:53:05.057Z,4.67
2018-06-12T04:55:33.528Z,4.10
2018-06-12T04:58:02.055Z,4.50
2018-06-12T05:00:30.611Z,4.20
2018-06-12T05:02:59.158Z,4.63
2018-06-12T05:05:27.741Z,4.43
2018-06-12T05:07:56.290Z,5.13
2018-06-12T05:10:24.766Z,4.47
2018-06-12T05:12:53.355Z,5.03
2018-06-12T05:15:23.061Z,4.60
2018-06-12T05:17:51.695Z,4.97
2018-06-12T05:20:20.346Z,4.50
2018-06-12T05:22:48.915Z,4.40
2018-06-12T05:25:17.506Z,4.53
2018-06-12T05:27:46.228Z,4.40
2018-06-12T05:30:14.813Z,5.23
2018-06-12T05:32:43.327Z,9.07
2018-06-12T05:35:11.873Z,7.20
2018-06-12T05:37:40.545Z,6.57
2018-06-12T05:40:09.081Z,5.07
2018-06-12T05:42:37.598Z,9.00
2018-06-12T05:45:06.161Z,7.63
2018-06-12T05:47:34.707Z,4.63
2018-06-12T05:50:03.297Z,5.30
2018-06-12T05:52:31.730Z,4.77
2018-06-12T05:55:00.224Z,4.77
2018-06-12T05:57:28.665Z,4.53
2018-06-12T05:59:57.197Z,4.50
2018-06-12T06:02:25.648Z,4.60
2018-06-12T06:04:54.148Z,4.83
2018-06-12T06:07:22.669Z,4.27
2018-06-12T06:09:51.096Z,4.10
2018-06-12T06:12:19.616Z,3.63
2018-06-12T06:14:48.196Z,3.47
2018-06-12T06:17:16.689Z,3.90
2018-06-12T06:19:46.110Z,4.30
2018-06-12T06:22:14.664Z,3.70
2018-06-12T06:24:43.179Z,3.63
2018-06-12T06:27:11.677Z,3.97
2018-06-12T06:29:40.226Z,3.87
2018-06-12T06:32:08.682Z,3.93
2018-06-12T06:34:37.114Z,4.00
2018-06-12T06:37:05.659Z,4.13
2018-06-12T06:39:34.112Z,3.53
2018-06-12T06:42:02.559Z,3.70
2018-06-12T06:44:31.216Z,3.63
2018-06-12T06:46:59.665Z,3.50
2018-06-12T06:49:28.076Z,3.33
2018-06-12T06:51:56.559Z,3.30
2018-06-12T06:54:25.111Z,3.50
2018-06-12T06:56:53.620Z,3.47
2018-06-12T06:59:22.164Z,3.63
2018-06-12T07:01:50.611Z,3.20
2018-06-12T07:04:19.022Z,3.50
2018-06-12T07:06:47.532Z,3.53
2018-06-12T07:09:16.071Z,3.17
2018-06-12T07:11:44.508Z,3.37
2018-06-12T07:14:13.143Z,2.77
2018-06-12T07:16:41.563Z,2.93
2018-06-12T07:19:10.113Z,2.90
2018-06-12T07:21:38.781Z,2.87
2018-06-12T07:24:07.690Z,2.63
2018-06-12T07:26:36.692Z,2.90
2018-06-12T07:29:05.388Z,2.50
2018-06-12T07:31:33.959Z,2.40
2018-06-12T07:34:02.486Z,2.10
2018-06-12T07:36:31.022Z,2.10
2018-06-12T07:38:59.498Z,1.80
2018-06-12T07:41:27.959Z,2.00
2018-06-12T07:43:56.821Z,1.80
2018-06-12T07:46:25.238Z,1.67
2018-06-12T07:48:53.632Z,2.10
2018-06-12T07:51:22.143Z,1.70
2018-06-12T07:53:50.700Z,1.63
2018-06-12T07:56:19.881Z,1.53
2018-06-12T07:58:48.532Z,1.63
2018-06-12T08:01:17.048Z,1.90
2018-06-12T08:03:45.525Z,1.70
2018-06-12T08:06:13.903Z,1.67
2018-06-12T08:08:43.110Z,1.77
2018-06-12T08:11:11.963Z,1.77
2018-06-12T08:13:40.423Z,1.60
2018-06-12T08:16:08.878Z,1.70
2018-06-12T08:18:37.367Z,1.50
2018-06-12T08:21:05.710Z,1.70
2018-06-12T08:23:34.135Z,1.82
2018-06-12T08:26:02.540Z,1.95
2018-06-12T08:28:31.476Z,1.70
2018-06-12T08:31:00.032Z,1.52
2018-06-12T08:33:28.461Z,1.80
2018-06-12T08:35:58.028Z,1.52
2018-06-12T08:38:26.448Z,1.75
2018-06-12T08:40:54.858Z,1.95
2018-06-12T08:43:23.230Z,1.70
2018-06-12T08:45:51.616Z,2.20
2018-06-12T08:48:20.308Z,2.87
2018-06-12T08:50:48.851Z,2.07
2018-06-12T08:53:17.897Z,2.60
2018-06-12T08:55:46.361Z,2.20
2018-06-12T08:58:14.756Z,2.03
2018-06-12T09:00:43.164Z,2.77
2018-06-12T09:03:11.633Z,2.03
2018-06-12T09:05:40.054Z,2.10
2018-06-12T09:08:08.511Z,2.20
2018-06-12T09:10:36.947Z,2.27
2018-06-12T09:13:05.358Z,2.37
2018-06-12T09:15:33.803Z,2.50
2018-06-12T09:18:02.244Z,2.70
2018-06-12T09:20:30.628Z,2.53
2018-06-12T09:22:59.003Z,2.70
2018-06-12T09:25:27.388Z,2.70
2018-06-12T09:27:55.817Z,2.57
2018-06-12T09:30:24.288Z,2.30
2018-06-12T09:32:52.732Z,2.60
2018-06-12T09:35:21.175Z,2.23
2018-06-12T09:37:49.590Z,2.53
2018-06-12T09:40:17.985Z,2.10
2018-06-12T09:42:46.564Z,2.17
2018-06-12T09:45:15.007Z,2.10
2018-06-12T09:47:43.474Z,2.13
2018-06-12T09:50:12.436Z,1.70
2018-06-12T09:52:40.936Z,1.90
2018-06-12T09:55:09.373Z,2.07
2018-06-12T09:57:37.856Z,1.57
2018-06-12T10:00:07.415Z,1.63
2018-06-12T10:02:35.942Z,1.83
2018-06-12T10:05:04.994Z,1.97
2018-06-12T10:07:33.391Z,1.87
2018-06-12T10:10:01.768Z,2.33
2018-06-12T10:12:30.212Z,1.90
2018-06-12T10:14:58.693Z,2.57
2018-06-12T10:17:27.147Z,2.43
2018-06-12T10:19:55.666Z,2.20
2018-06-12T10:22:24.101Z,2.20
2018-06-12T10:24:52.606Z,2.47
2018-06-12T10:27:21.931Z,2.20
2018-06-12T10:29:50.393Z,2.30
2018-06-12T10:32:19.611Z,1.80
2018-06-12T10:34:48.482Z,2.77
2018-06-12T10:37:16.952Z,2.47
2018-06-12T10:39:45.361Z,2.80
2018-06-12T10:42:13.719Z,3.13
2018-06-12T10:44:42.153Z,2.93
2018-06-12T10:47:10.561Z,2.87
2018-06-12T10:49:38.958Z,3.07
2018-06-12T10:52:07.389Z,2.73
2018-06-12T10:54:35.857Z,3.00
2018-06-12T10:57:04.273Z,2.47
2018-06-12T10:59:32.819Z,2.63
2018-06-12T11:02:01.229Z,2.73
2018-06-12T11:04:30.033Z,3.07
2018-06-12T11:06:58.501Z,2.37
2018-06-12T11:09:26.977Z,2.87
2018-06-12T11:11:55.526Z,2.50
2018-06-12T11:14:33.982Z,2.60
2018-06-12T11:17:04.879Z,2.60
2018-06-12T11:19:33.307Z,2.60
2018-06-12T11:22:01.793Z,2.40
2018-06-12T11:24:30.322Z,2.60
2018-06-12T11:26:58.868Z,3.00
2018-06-12T11:29:28.730Z,2.97
2018-06-12T11:31:57.309Z,3.10
2018-06-12T11:34:25.790Z,2.57
2018-06-12T11:36:54.219Z,2.90
2018-06-12T11:39:22.582Z,3.10
2018-06-12T11:41:51.084Z,2.97
2018-06-12T11:44:20.152Z,2.63
2018-06-12T11:46:48.564Z,2.77
2018-06-12T11:49:16.970Z,2.57
2018-06-12T11:51:45.374Z,2.60
2018-06-12T11:54:14.049Z,2.97
2018-06-12T11:56:42.567Z,3.10
2018-06-12T11:59:11.014Z,2.53
2018-06-12T12:01:39.525Z,2.97
2018-06-12T12:04:07.910Z,2.87
2018-06-12T12:06:36.378Z,3.03
2018-06-12T12:09:07.789Z,2.90
2018-06-12T12:11:36.859Z,2.60
2018-06-12T12:14:05.909Z,2.53
2018-06-12T12:16:34.854Z,2.70
2018-06-12T12:19:03.733Z,2.60
2018-06-12T12:21:32.210Z,2.40
2018-06-12T12:24:00.634Z,2.50
2018-06-12T12:26:29.130Z,2.43
2018-06-12T12:28:57.539Z,2.60
2018-06-12T12:31:25.980Z,2.67
2018-06-12T12:33:54.973Z,2.30
2018-06-12T12:36:23.374Z,2.23
2018-06-12T12:38:51.885Z,2.47
2018-06-12T12:41:20.271Z,2.57
2018-06-12T12:43:49.452Z,2.50
2018-06-12T12:46:17.860Z,2.30
2018-06-12T12:48:46.340Z,2.30
2018-06-12T12:51:14.913Z,2.90
2018-06-12T12:53:43.361Z,2.40
2018-06-12T12:56:11.959Z,2.30
2018-06-12T12:58:40.799Z,2.27
2018-06-12T13:01:09.191Z,2.23
2018-06-12T13:03:37.569Z,2.53
2018-06-12T13:06:06.291Z,2.33
2018-06-12T13:08:34.736Z,2.20
2018-06-12T13:11:03.280Z,2.50
2018-06-12T13:13:32.269Z,2.40
2018-06-12T13:16:00.800Z,2.40
2018-06-12T13:18:29.374Z,2.40
2018-06-12T13:20:58.439Z,2.67
2018-06-12T13:23:26.905Z,2.60
2018-06-12T13:25:55.355Z,2.30
2018-06-12T13:28:23.816Z,2.00
2018-06-12T13:30:52.303Z,2.50
2018-06-12T13:33:20.879Z,2.43
2018-06-12T13:35:49.402Z,2.43
2018-06-12T13:38:17.829Z,2.33
2018-06-12T13:40:46.253Z,2.50
2018-06-12T13:43:14.713Z,2.80
2018-06-12T13:45:43.854Z,2.43
2018-06-12T13:48:12.298Z,2.60
2018-06-12T13:50:40.768Z,2.23
2018-06-12T13:53:09.235Z,2.53
2018-06-12T13:55:37.735Z,2.60
2018-06-12T13:58:06.243Z,2.33
2018-06-12T14:00:34.706Z,2.60
2018-06-12T14:03:03.120Z,2.40
2018-06-12T14:05:31.635Z,2.07
2018-06-12T14:08:00.991Z,2.07
2018-06-12T14:10:29.448Z,2.10
2018-06-12T14:12:58.720Z,2.60
2018-06-12T14:15:27.306Z,2.17
2018-06-12T14:17:56.281Z,2.00
2018-06-12T14:20:24.703Z,3.00
2018-06-12T14:22:53.269Z,2.30
2018-06-12T14:25:21.687Z,2.30
2018-06-12T14:27:50.225Z,2.00
2018-06-12T14:30:18.693Z,2.33
2018-06-12T14:32:47.151Z,2.20
2018-06-12T14:35:15.531Z,2.30
2018-06-12T14:37:44.369Z,2.40
2018-06-12T14:40:12.931Z,1.97
2018-06-12T14:42:41.404Z,2.40
2018-06-12T14:45:10.411Z,2.20
2018-06-12T14:47:38.834Z,2.37
2018-06-12T14:50:07.302Z,1.97
2018-06-12T14:52:36.205Z,2.40
2018-06-12T14:55:04.848Z,1.83
2018-06-12T14:57:33.315Z,2.13
2018-06-12T15:00:01.801Z,2.37
2018-06-12T15:02:30.211Z,2.10
2018-06-12T15:04:58.863Z,2.20
2018-06-12T15:07:27.308Z,2.10
2018-06-12T15:09:56.059Z,1.97
2018-06-12T15:12:23.495Z,1.90
2018-06-12T15:14:52.004Z,1.90
2018-06-12T15:17:20.450Z,2.20
2018-06-12T15:19:48.961Z,1.97
2018-06-12T15:22:17.342Z,2.00
2018-06-12T15:24:45.822Z,1.90
2018-06-12T15:27:14.516Z,1.80
2018-06-12T15:29:42.993Z,1.77
2018-06-12T15:32:12.215Z,2.10
2018-06-12T15:34:40.669Z,2.10
2018-06-12T15:37:09.022Z,1.40
2018-06-12T15:39:37.470Z,2.60
2018-06-12T15:42:05.920Z,2.10
2018-06-12T15:44:34.404Z,1.70
2018-06-12T15:47:02.849Z,1.80
2018-06-12T15:49:31.321Z,1.93
2018-06-12T15:51:59.701Z,1.90
2018-06-12T15:54:28.115Z,1.97
2018-06-12T15:56:56.532Z,1.73
2018-06-12T15:59:25.071Z,1.97
2018-06-12T16:01:53.495Z,1.80
2018-06-12T16:04:22.244Z,1.83
2018-06-12T16:06:51.270Z,1.97
2018-06-12T16:09:19.694Z,1.73
2018-06-12T16:11:48.094Z,1.90
2018-06-12T16:14:16.584Z,2.20
2018-06-12T16:16:45.784Z,1.80
2018-06-12T16:19:14.306Z,1.90
2018-06-12T16:21:42.823Z,1.70
2018-06-12T16:24:12.586Z,2.00
2018-06-12T16:26:41.164Z,2.00
2018-06-12T16:29:09.823Z,1.90
2018-06-12T16:31:38.368Z,1.70
2018-06-12T16:34:06.987Z,1.80
2018-06-12T16:36:35.511Z,1.93
2018-06-12T16:39:04.559Z,1.90
2018-06-12T16:41:33.009Z,1.80
2018-06-12T16:44:02.117Z,2.13
2018-06-12T16:46:32.187Z,1.90
2018-06-12T16:49:01.877Z,1.90
2018-06-12T16:51:30.836Z,1.80
2018-06-12T16:53:59.340Z,1.40
2018-06-12T16:56:28.036Z,1.70
2018-06-12T16:58:56.384Z,2.07
2018-06-12T17:01:32.579Z,2.50
2018-06-12T17:04:01.169Z,2.00
2018-06-12T17:06:29.938Z,2.10
2018-06-12T17:08:59.369Z,1.80
2018-06-12T17:11:28.050Z,2.20
2018-06-12T17:13:56.670Z,2.07
2018-06-12T17:16:25.274Z,2.17
2018-06-12T17:18:54.360Z,1.60
2018-06-12T17:21:22.992Z,1.60
2018-06-12T17:23:51.983Z,1.80
2018-06-12T17:26:20.754Z,1.67
2018-06-12T17:28:49.319Z,1.90
2018-06-12T17:31:18.369Z,1.80
2018-06-12T17:33:47.434Z,2.17
2018-06-12T17:36:16.793Z,2.53
2018-06-12T17:38:46.339Z,1.87
2018-06-12T17:41:15.748Z,1.87
2018-06-12T17:43:44.435Z,1.83
2018-06-12T17:46:12.917Z,2.17
2018-06-12T17:48:41.671Z,2.03
2018-06-12T17:51:10.218Z,1.80
2018-06-12T17:53:38.826Z,1.90
2018-06-12T17:56:07.493Z,1.80
2018-06-12T17:58:39.158Z,1.73
2018-06-12T18:01:08.408Z,2.13
2018-06-12T18:03:36.960Z,2.30
2018-06-12T18:06:05.625Z,2.30
2018-06-12T18:08:34.177Z,2.27
2018-06-12T18:11:02.741Z,2.00
2018-06-12T18:13:31.853Z,2.20
2018-06-12T18:16:00.363Z,2.00
2018-06-12T18:18:28.905Z,2.10
2018-06-12T18:20:57.385Z,2.60
2018-06-12T18:23:25.765Z,2.10
2018-06-12T18:25:54.147Z,2.50
2018-06-12T18:28:22.567Z,1.97
2018-06-12T18:30:51.046Z,2.70
2018-06-12T18:33:19.504Z,2.67
2018-06-12T18:35:47.965Z,2.53
2018-06-12T18:38:16.367Z,2.37
2018-06-12T18:40:44.727Z,2.77
2018-06-12T18:43:13.352Z,2.90
2018-06-12T18:45:41.809Z,2.60
2018-06-12T18:48:10.242Z,2.50
2018-06-12T18:50:38.855Z,2.20
2018-06-12T18:53:07.405Z,2.70
2018-06-12T18:55:35.902Z,2.43
2018-06-12T18:58:04.328Z,2.47
2018-06-12T19:00:33.759Z,2.57
2018-06-12T19:03:02.220Z,2.30
2018-06-12T19:05:30.775Z,2.30
2018-06-12T19:07:59.215Z,2.30
2018-06-12T19:10:27.629Z,2.80
2018-06-12T19:12:56.247Z,2.80
2018-06-12T19:15:24.696Z,2.90
2018-06-12T19:17:53.140Z,5.80
2018-06-12T19:20:21.557Z,4.73
2018-06-12T19:22:50.136Z,3.23
2018-06-12T19:25:18.836Z,3.00
2018-06-12T19:27:47.420Z,3.23
2018-06-12T19:30:15.968Z,3.00
2018-06-12T19:32:44.557Z,3.00
2018-06-12T19:35:13.166Z,3.13
2018-06-12T19:37:41.680Z,3.33
2018-06-12T19:40:10.227Z,2.70
2018-06-12T19:42:38.715Z,3.57
2018-06-12T19:45:07.334Z,3.23
2018-06-12T19:47:35.919Z,3.10
2018-06-12T19:50:04.706Z,7.00
2018-06-12T19:52:33.879Z,9.23
2018-06-12T19:55:03.602Z,3.90
2018-06-12T19:57:32.739Z,3.10
2018-06-12T20:00:02.810Z,3.27
2018-06-12T20:02:32.435Z,4.07
2018-06-12T20:05:00.994Z,3.47
2018-06-12T20:07:29.590Z,3.30
2018-06-12T20:09:58.160Z,3.17
2018-06-12T20:12:27.350Z,3.50
2018-06-12T20:14:55.966Z,3.20
2018-06-12T20:17:24.693Z,3.50
2018-06-12T20:19:54.480Z,3.47
2018-06-12T20:22:22.932Z,10.30
2018-06-12T20:24:51.553Z,4.07
2018-06-12T20:27:20.080Z,3.50
2018-06-12T20:29:48.910Z,3.60
2018-06-12T20:32:17.819Z,3.03
2018-06-12T20:34:46.479Z,3.47
2018-06-12T20:37:15.338Z,3.50
2018-06-12T20:39:43.842Z,4.00
2018-06-12T20:42:12.330Z,3.40
2018-06-12T20:44:40.882Z,3.33
2018-06-12T20:47:09.467Z,3.50
2018-06-12T20:49:37.964Z,3.13
2018-06-12T20:52:06.538Z,3.23
2018-06-12T20:54:35.122Z,3.50
2018-06-12T20:57:03.616Z,2.80
2018-06-12T20:59:32.117Z,3.33
2018-06-12T21:02:00.681Z,3.60
2018-06-12T21:04:29.275Z,3.13
2018-06-12T21:06:58.003Z,3.30
2018-06-12T21:09:26.474Z,3.10
2018-06-12T21:11:55.105Z,3.37
2018-06-12T21:14:23.688Z,3.27
2018-06-12T21:16:52.274Z,3.40
2018-06-12T21:19:20.746Z,3.73
2018-06-12T21:21:49.337Z,3.33
2018-06-12T21:24:17.863Z,3.20
2018-06-12T21:26:46.486Z,3.17
2018-06-12T21:29:15.117Z,3.70
2018-06-12T21:31:44.113Z,3.13
2018-06-12T21:34:12.671Z,3.03
2018-06-12T21:36:41.519Z,3.00
2018-06-12T21:39:09.964Z,3.00
2018-06-12T21:41:38.498Z,3.00
2018-06-12T21:44:08.051Z,3.03
2018-06-12T21:46:36.668Z,3.00
2018-06-12T21:49:05.153Z,3.67
2018-06-12T21:51:33.596Z,2.93
2018-06-12T21:54:02.040Z,3.30
2018-06-12T21:56:30.574Z,3.23
2018-06-12T21:58:59.133Z,3.07
2018-06-12T22:01:27.744Z,3.33
2018-06-12T22:03:57.624Z,3.00
2018-06-12T22:06:26.249Z,3.00
2018-06-12T22:08:54.856Z,2.90
2018-06-12T22:11:23.432Z,3.20
2018-06-12T22:13:51.964Z,2.90
2018-06-12T22:16:23.280Z,2.80
2018-06-12T22:18:52.252Z,2.67
2018-06-12T22:21:20.847Z,2.90
2018-06-12T22:23:49.275Z,3.00
2018-06-12T22:26:17.826Z,2.60
2018-06-12T22:28:46.303Z,3.23
2018-06-12T22:31:14.865Z,3.10
2018-06-12T22:33:43.492Z,3.20
2018-06-12T22:36:11.932Z,2.70
2018-06-12T22:38:40.416Z,2.77
2018-06-12T22:41:08.946Z,2.97
2018-06-12T22:43:37.377Z,2.97
2018-06-12T22:46:05.961Z,3.10
2018-06-12T22:48:34.475Z,2.63
2018-06-12T22:51:02.952Z,3.27
2018-06-12T22:53:31.515Z,2.70
2018-06-12T22:55:59.992Z,2.67
2018-06-12T22:58:28.443Z,2.80
2018-06-12T23:00:57.007Z,2.60
2018-06-12T23:03:25.539Z,3.00
2018-06-12T23:05:53.995Z,3.00
2018-06-12T23:08:22.526Z,2.70
2018-06-12T23:10:50.948Z,2.70
2018-06-12T23:13:19.464Z,3.07
2018-06-12T23:15:47.912Z,2.80
2018-06-12T23:18:16.452Z,2.97
2018-06-12T23:20:56.232Z,2.60
2018-06-12T23:23:24.726Z,2.70
2018-06-12T23:25:53.268Z,2.87
2018-06-12T23:28:21.747Z,2.87
2018-06-12T23:30:51.215Z,2.50
2018-06-12T23:33:19.654Z,2.80
2018-06-12T23:35:48.287Z,2.63
2018-06-12T23:38:16.822Z,2.80
2018-06-12T23:40:45.378Z,2.60
2018-06-12T23:43:14.468Z,2.53
2018-06-12T23:45:42.987Z,2.40
2018-06-12T23:48:11.571Z,2.73
2018-06-12T23:50:40.058Z,2.60
2018-06-12T23:53:08.546Z,2.37
2018-06-12T23:55:37.013Z,2.53
2018-06-12T23:58:05.808Z,2.30
